Time;durP1;ratioP1;P1;durP2;ratioP2;P2;SDS_P1;SDS_P2;PMS_P1;PMS_P2;Temp;Humidity;BMP_temperature;BMP_pressure;BME280_temperature;BME280_humidity;BME280_pressure;Samples;Min_cycle;Max_cycle;Signal;HPM_P1;HPM_P2
2023/03/15 00:01:25;;;;;;;0.93;0.82;;;;;;;;;;12828725;19;20306;-68
2023/03/15 00:06:06;;;;;;;1.77;1.05;;;;;;;;;;12828201;19;20071;-68
2023/03/15 00:11:09;;;;;;;0.70;0.70;;;;;;;;;;12828592;19;20540;-68
2023/03/15 00:21:34;;;;;;;2.17;1.20;;;;;;;;;;12825546;19;20503;-68
2023/03/15 00:32:21;;;;;;;2.13;1.30;;;;;;;;;;12726235;19;2004992;-68
2023/03/15 00:37:15;;;;;;;2.92;1.52;;;;;;;;;;12826154;19;20494;-68
2023/03/15 00:41:44;;;;;;;;;;;;;;;;;;12828155;19;20018;-67
2023/03/15 00:47:25;;;;;;;1.27;0.88;;;;;;;;;;12822971;19;20213;-68
2023/03/15 00:52:15;;;;;;;0.70;0.55;;;;;;;;;;12824060;19;20317;-68
2023/03/15 01:03:15;;;;;;;0.52;0.40;;;;;;;;;;12827492;19;20010;-68
2023/03/15 01:08:10;;;;;;;0.40;0.40;;;;;;;;;;12821080;19;20417;-68
2023/03/15 01:12:49;;;;;;;0.80;0.68;;;;;;;;;;12816003;19;20473;-68
2023/03/15 01:18:14;;;;;;;0.75;0.60;;;;;;;;;;12815847;19;20505;-69
2023/03/15 01:23:11;;;;;;;0.47;0.40;;;;;;;;;;12814355;19;20378;-68
2023/03/15 01:27:34;;;;;;;1.27;0.80;;;;;;;;;;12814845;19;20497;-68
2023/03/15 01:33:07;;;;;;;1.20;1.00;;;;;;;;;;12816608;19;20496;-68
2023/03/15 01:38:41;;;;;;;0.85;0.73;;;;;;;;;;12714154;19;2005197;-68
2023/03/15 01:43:31;;;;;;;1.08;0.88;;;;;;;;;;12813493;19;20426;-68
2023/03/15 01:49:06;;;;;;;1.10;0.82;;;;;;;;;;12815542;19;20448;-68
2023/03/15 01:54:29;;;;;;;1.45;0.85;;;;;;;;;;12713391;19;2005129;-67
2023/03/15 01:59:32;;;;;;;1.90;0.90;;;;;;;;;;12818206;19;20010;-68
2023/03/15 02:04:09;;;;;;;1.50;0.73;;;;;;;;;;12820263;19;20441;-68
2023/03/15 02:20:47;;;;;;;1.55;0.80;;;;;;;;;;12816134;19;20448;-68
2023/03/15 02:32:39;;;;;;;1.95;0.85;;;;;;;;;;12709924;19;2005171;-69
2023/03/15 02:37:11;;;;;;;3.92;1.00;;;;;;;;;;12811885;19;20379;-67
2023/03/15 02:41:42;;;;;;;3.05;0.80;;;;;;;;;;12814010;19;20480;-68
2023/03/15 02:46:34;;;;;;;6.95;1.92;;;;;;;;;;12819349;19;20347;-69
2023/03/15 02:52:15;;;;;;;2.05;1.15;;;;;;;;;;12816624;19;20310;-68
2023/03/15 02:57:10;;;;;;;2.85;1.17;;;;;;;;;;12817476;19;20334;-69
2023/03/15 03:02:17;;;;;;;2.40;1.00;;;;;;;;;;12819899;19;20349;-68
2023/03/15 03:08:15;;;;;;;6.00;1.10;;;;;;;;;;12809024;19;20314;-67
2023/03/15 03:13:25;;;;;;;2.55;0.90;;;;;;;;;;12808503;19;20557;-68
2023/03/15 03:18:05;;;;;;;7.68;1.30;;;;;;;;;;12815446;19;20426;-68
2023/03/15 03:28:07;;;;;;;5.72;1.00;;;;;;;;;;12820485;19;20435;-68
2023/03/15 03:33:08;;;;;;;3.40;1.08;;;;;;;;;;12821251;19;20398;-68
2023/03/15 03:44:05;;;;;;;1.40;1.08;;;;;;;;;;12820927;19;20355;-69
2023/03/15 03:48:36;;;;;;;4.50;1.02;;;;;;;;;;12819916;19;20396;-68
2023/03/15 03:53:32;;;;;;;3.28;1.50;;;;;;;;;;12824763;19;20414;-68
2023/03/15 03:58:48;;;;;;;4.07;1.50;;;;;;;;;;12824979;19;20436;-68
2023/03/15 04:03:50;;;;;;;2.33;1.23;;;;;;;;;;12827589;19;20010;-68
2023/03/15 04:08:31;;;;;;;3.20;1.05;;;;;;;;;;12826185;19;20307;-67
2023/03/15 04:13:15;;;;;;;2.10;1.20;;;;;;;;;;12829084;19;20347;-68
2023/03/15 04:18:39;;;;;;;6.43;1.77;;;;;;;;;;12816900;19;20371;-68
2023/03/15 04:23:27;;;;;;;5.00;1.23;;;;;;;;;;12819502;19;20425;-68
2023/03/15 04:27:57;;;;;;;2.50;1.55;;;;;;;;;;12821579;19;20025;-68
2023/03/15 04:33:12;;;;;;;4.88;1.30;;;;;;;;;;12818811;19;20469;-68
2023/03/15 04:38:06;;;;;;;4.47;1.45;;;;;;;;;;12818114;19;20537;-68
2023/03/15 04:42:34;;;;;;;3.70;1.40;;;;;;;;;;12819267;19;20315;-67
2023/03/15 04:47:21;;;;;;;3.38;1.50;;;;;;;;;;12820845;19;20501;-69
2023/03/15 04:52:39;;;;;;;6.60;1.65;;;;;;;;;;12821540;19;20291;-68
2023/03/15 05:02:26;;;;;;;5.03;1.85;;;;;;;;;;12821140;19;20310;-69
2023/03/15 05:13:17;;;;;;;6.15;1.85;;;;;;;;;;12723293;19;2005181;-68
2023/03/15 05:17:53;;;;;;;4.68;1.42;;;;;;;;;;12821328;19;20545;-67
2023/03/15 05:22:28;;;;;;;3.25;1.70;;;;;;;;;;12823267;19;20074;-68
2023/03/15 05:27:50;;;;;;;5.78;1.73;;;;;;;;;;12814656;19;20434;-68
2023/03/15 05:32:46;;;;;;;5.85;1.75;;;;;;;;;;12814222;19;20358;-68
2023/03/15 05:37:22;;;;;;;4.77;1.90;;;;;;;;;;12820479;19;20310;-68
2023/03/15 05:48:16;;;;;;;4.35;1.27;;;;;;;;;;12719514;19;2005224;-68
2023/03/15 05:53:14;;;;;;;9.50;2.40;;;;;;;;;;12812530;19;20013;-68
2023/03/15 05:57:40;;;;;;;5.88;1.80;;;;;;;;;;12814782;19;20437;-68
2023/03/15 06:03:06;;;;;;;6.55;2.88;;;;;;;;;;12813216;19;20027;-68
2023/03/15 06:08:09;;;;;;;1.77;1.15;;;;;;;;;;12813380;19;20417;-68
2023/03/15 06:13:05;;;;;;;11.30;3.08;;;;;;;;;;12813213;19;20311;-69
2023/03/15 06:23:42;;;;;;;11.05;2.97;;;;;;;;;;12811905;19;20014;-69
2023/03/15 06:28:41;;;;;;;8.20;2.55;;;;;;;;;;12814338;19;20303;-68
2023/03/15 06:39:23;;;;;;;9.50;2.40;;;;;;;;;;12711471;19;2005434;-68
2023/03/15 06:44:07;;;;;;;4.35;1.80;;;;;;;;;;12811174;19;20312;-67
2023/03/15 06:49:22;;;;;;;3.70;1.45;;;;;;;;;;12811163;19;20537;-68
2023/03/15 06:54:36;;;;;;;6.80;2.05;;;;;;;;;;12821528;19;20016;-68
2023/03/15 06:59:29;;;;;;;7.20;2.33;;;;;;;;;;12822056;19;21007;-69
2023/03/15 07:04:05;;;;;;;5.75;2.00;;;;;;;;;;12823489;19;20503;-67
2023/03/15 07:09:27;;;;;;;4.72;1.55;;;;;;;;;;12828635;19;20382;-68
2023/03/15 07:14:31;;;;;;;9.73;2.90;;;;;;;;;;12829190;19;20308;-68
2023/03/15 07:19:10;;;;;;;4.55;1.88;;;;;;;;;;12830220;19;20383;-68
2023/03/15 07:24:39;;;;;;;8.93;2.78;;;;;;;;;;12831679;19;20446;-69
2023/03/15 07:29:41;;;;;;;5.68;1.67;;;;;;;;;;12820408;19;20093;-68
2023/03/15 07:34:44;;;;;;;10.93;2.33;;;;;;;;;;12820537;19;20348;-69
2023/03/15 07:46:16;;;;;;;9.05;2.75;;;;;;;;;;12720520;19;2004975;-68
2023/03/15 07:50:46;;;;;;;16.10;4.28;;;;;;;;;;12820221;19;20574;-68
2023/03/15 08:01:44;;;;;;;6.55;1.90;;;;;;;;;;12822833;19;20365;-69
2023/03/15 08:06:38;;;;;;;5.03;1.40;;;;;;;;;;12826757;19;20334;-68
2023/03/15 08:17:15;;;;;;;3.67;0.85;;;;;;;;;;12720990;19;2005355;-68
2023/03/15 08:21:38;;;;;;;7.00;1.55;;;;;;;;;;12825280;19;20311;-68
2023/03/15 08:37:23;;;;;;;7.28;1.52;;;;;;;;;;12816751;19;20338;-68
2023/03/15 08:48:08;;;;;;;0.70;0.70;;;;;;;;;;12822028;19;20380;-69
2023/03/15 08:53:06;;;;;;;8.88;1.58;;;;;;;;;;12820666;19;20422;-69
2023/03/15 08:57:31;;;;;;;5.45;2.95;;;;;;;;;;12822727;19;20322;-68
2023/03/15 09:08:13;;;;;;;5.80;3.47;;;;;;;;;;12723831;19;2004990;-68
2023/03/15 09:13:10;;;;;;;10.52;2.85;;;;;;;;;;12824272;19;20371;-68
2023/03/15 09:24:06;;;;;;;4.53;1.55;;;;;;;;;;12713175;19;2004805;-68
2023/03/15 09:40:31;;;;;;;4.72;1.73;;;;;;;;;;12714610;19;2006228;-68
2023/03/15 09:46:37;;;;;;;3.67;1.77;;;;;;;;;;12813893;19;20327;-68
2023/03/15 09:58:31;;;;;;;4.90;1.43;;;;;;;;;;12820269;19;20014;-68
2023/03/15 10:03:38;;;;;;;3.05;1.60;;;;;;;;;;12821139;19;20360;-67
2023/03/15 10:14:25;;;;;;;3.67;1.70;;;;;;;;;;12821823;19;20486;-67
2023/03/15 10:31:09;;;;;;;8.00;1.45;;;;;;;;;;12819160;19;20006;-67
2023/03/15 10:36:22;;;;;;;4.43;1.42;;;;;;;;;;12812164;19;20339;-68
2023/03/15 10:41:44;;;;;;;6.57;1.38;;;;;;;;;;12813375;19;20303;-68
2023/03/15 10:47:19;;;;;;;20.13;7.45;;;;;;;;;;12711065;19;2005004;-68
2023/03/15 10:53:20;;;;;;;5.70;2.33;;;;;;;;;;12811398;19;20308;-68
2023/03/15 10:58:30;;;;;;;3.72;1.60;;;;;;;;;;12810369;19;20312;-68
2023/03/15 11:04:22;;;;;;;5.88;1.80;;;;;;;;;;12809050;19;20625;-67
2023/03/15 11:10:05;;;;;;;10.77;2.33;;;;;;;;;;12809678;19;20447;-67
2023/03/15 11:14:26;;;;;;;6.32;2.13;;;;;;;;;;12809342;19;20500;-68
2023/03/15 11:25:32;;;;;;;5.32;2.60;;;;;;;;;;12707542;19;2005024;-68
2023/03/15 11:30:17;;;;;;;9.57;1.65;;;;;;;;;;12808349;19;20015;-67
2023/03/15 11:35:21;;;;;;;4.95;1.80;;;;;;;;;;12812750;19;20512;-67
2023/03/15 11:46:28;;;;;;;3.92;1.60;;;;;;;;;;12819776;19;20669;-69
2023/03/15 11:51:12;;;;;;;2.78;1.35;;;;;;;;;;12818136;19;20401;-67
2023/03/15 12:02:16;;;;;;;9.95;1.60;;;;;;;;;;12717321;19;2005410;-67
2023/03/15 12:06:45;;;;;;;3.97;1.40;;;;;;;;;;12818948;19;20080;-67
2023/03/15 12:11:38;;;;;;;6.05;1.00;;;;;;;;;;12819064;19;20507;-68
2023/03/15 12:22:05;;;;;;;6.75;1.67;;;;;;;;;;12825043;19;20460;-67
2023/03/15 12:27:22;;;;;;;3.28;1.00;;;;;;;;;;12824812;19;20368;-67
2023/03/15 12:39:08;;;;;;;12.73;3.20;;;;;;;;;;12725293;19;2005115;-67
2023/03/15 12:44:21;;;;;;;7.13;2.78;;;;;;;;;;12824211;19;20037;-67
2023/03/15 12:49:26;;;;;;;12.35;3.47;;;;;;;;;;12820956;19;20314;-66
2023/03/15 13:01:09;;;;;;;3.88;1.58;;;;;;;;;;12716319;19;2005075;-67
2023/03/15 13:06:21;;;;;;;2.95;1.55;;;;;;;;;;12825296;19;20111;-69
2023/03/15 13:11:18;;;;;;;1.30;0.93;;;;;;;;;;12820926;19;20363;-70
2023/03/15 13:22:58;;;;;;;3.25;1.42;;;;;;;;;;12723514;19;2004892;-71
2023/03/15 13:27:44;;;;;;;3.83;1.70;;;;;;;;;;12813322;19;20370;-68
2023/03/15 13:33:00;;;;;;;3.83;1.35;;;;;;;;;;12821517;19;20469;-69
2023/03/15 13:39:12;;;;;;;3.00;1.30;;;;;;;;;;12815826;19;21030;-68
2023/03/15 13:44:36;;;;;;;6.35;1.73;;;;;;;;;;12712050;19;2004746;-68
2023/03/15 13:49:41;;;;;;;6.72;2.00;;;;;;;;;;12816776;19;20380;-69
2023/03/15 13:54:34;;;;;;;5.57;1.60;;;;;;;;;;12813957;19;20404;-69
2023/03/15 13:59:14;;;;;;;;;;;;;;;;;;12814166;19;20439;-68
2023/03/15 14:16:40;;;;;;;5.45;1.63;;;;;;;;;;12812062;19;20474;-68
2023/03/15 14:28:11;;;;;;;5.70;1.70;;;;;;;;;;12811370;19;20354;-69
2023/03/15 14:33:07;;;;;;;1.50;1.00;;;;;;;;;;12809954;19;20738;-69
2023/03/15 14:38:21;;;;;;;1.80;1.10;;;;;;;;;;12812885;19;20308;-68
2023/03/15 14:48:37;;;;;;;8.10;1.90;;;;;;;;;;12818666;19;20524;-68
2023/03/15 14:53:35;;;;;;;4.55;2.30;;;;;;;;;;12814408;19;20606;-68
2023/03/15 14:58:20;;;;;;;8.40;4.00;;;;;;;;;;12810600;19;20418;-69
2023/03/15 15:04:07;;;;;;;5.53;1.50;;;;;;;;;;12814718;19;20505;-69
2023/03/15 15:09:05;;;;;;;8.23;2.42;;;;;;;;;;12711845;19;2004581;-68
2023/03/15 15:13:57;;;;;;;4.70;2.05;;;;;;;;;;12815228;19;20347;-69
2023/03/15 15:18:57;;;;;;;3.85;1.50;;;;;;;;;;12821897;19;20429;-69
2023/03/15 15:23:47;;;;;;;5.28;2.38;;;;;;;;;;12824276;19;20374;-68
2023/03/15 15:29:07;;;;;;;10.52;3.83;;;;;;;;;;12810724;19;20010;-68
2023/03/15 15:34:28;;;;;;;4.05;1.83;;;;;;;;;;12807716;19;20018;-68
2023/03/15 15:39:26;;;;;;;8.45;2.85;;;;;;;;;;12821010;19;20007;-69
2023/03/15 15:44:15;;;;;;;4.90;2.30;;;;;;;;;;12826682;19;20326;-68
2023/03/15 15:49:56;;;;;;;9.32;3.10;;;;;;;;;;12827852;19;20382;-68
2023/03/15 15:54:37;;;;;;;;;;;;;;;;;;12831022;19;20484;-68
2023/03/15 15:59:47;;;;;;;16.30;2.33;;;;;;;;;;12826183;19;20286;-69
2023/03/15 16:10:30;;;;;;;9.20;2.42;;;;;;;;;;12826780;19;20449;-68
2023/03/15 16:15:24;;;;;;;9.23;2.60;;;;;;;;;;12824983;19;20037;-69
2023/03/15 16:26:05;;;;;;;14.82;5.90;;;;;;;;;;12724931;19;2006479;-68
2023/03/15 16:31:08;;;;;;;28.38;13.85;;;;;;;;;;12822543;19;20434;-68
2023/03/15 16:36:04;;;;;;;21.08;10.73;;;;;;;;;;12824299;19;20027;-70
2023/03/15 16:46:35;;;;;;;26.73;11.25;;;;;;;;;;12826719;19;20469;-69
2023/03/15 16:52:06;;;;;;;27.80;8.23;;;;;;;;;;12823741;19;20318;-69
2023/03/15 17:08:11;;;;;;;278.58;93.35;;;;;;;;;;12822195;19;20307;-68
2023/03/15 17:12:46;;;;;;;206.95;69.95;;;;;;;;;;12823667;19;20037;-68
2023/03/15 17:23:09;;;;;;;;;;;;;;;;;;12825412;19;20473;-68
2023/03/15 17:28:04;;;;;;;103.55;30.50;;;;;;;;;;12821908;19;20360;-68
2023/03/15 17:32:28;;;;;;;70.13;25.55;;;;;;;;;;12823816;19;20382;-68
2023/03/15 17:37:11;;;;;;;55.90;21.92;;;;;;;;;;12819884;19;20596;-68
2023/03/15 17:42:07;;;;;;;41.78;14.90;;;;;;;;;;12822737;19;20426;-69
2023/03/15 17:47:13;;;;;;;27.77;11.65;;;;;;;;;;12823733;19;20446;-68
2023/03/15 17:52:31;;;;;;;37.35;13.15;;;;;;;;;;12822275;19;20377;-67
2023/03/15 17:58:18;;;;;;;33.10;10.88;;;;;;;;;;12813314;19;20377;-68
2023/03/15 18:03:08;;;;;;;22.15;9.93;;;;;;;;;;12813199;19;20470;-68
2023/03/15 18:08:27;;;;;;;28.25;10.20;;;;;;;;;;12815869;19;20456;-67
2023/03/15 18:13:28;;;;;;;21.83;8.10;;;;;;;;;;12813096;19;20029;-67
2023/03/15 18:18:23;;;;;;;31.42;10.02;;;;;;;;;;12813109;19;20011;-68
2023/03/15 18:22:41;;;;;;;32.03;11.40;;;;;;;;;;12821667;19;20448;-68
2023/03/15 18:27:35;;;;;;;39.28;12.68;;;;;;;;;;12820616;19;20363;-69
2023/03/15 18:38:06;;;;;;;24.08;9.10;;;;;;;;;;12818318;19;20310;-67
2023/03/15 18:43:23;;;;;;;23.88;8.10;;;;;;;;;;12818157;19;20506;-68
2023/03/15 18:48:31;;;;;;;14.95;5.70;;;;;;;;;;12810569;19;20364;-69
2023/03/15 18:53:26;;;;;;;9.80;5.07;;;;;;;;;;12810635;19;20098;-68
2023/03/15 19:04:06;;;;;;;16.83;5.70;;;;;;;;;;12716560;19;2005108;-69
2023/03/15 19:08:32;;;;;;;13.05;4.13;;;;;;;;;;12819564;19;20287;-67
2023/03/15 19:13:07;;;;;;;11.73;4.60;;;;;;;;;;12819539;19;20514;-67
2023/03/15 19:19:07;;;;;;;11.48;3.90;;;;;;;;;;12808872;19;20310;-67
2023/03/15 19:24:08;;;;;;;20.42;5.35;;;;;;;;;;12809633;19;20442;-67
2023/03/15 19:28:33;;;;;;;16.50;6.40;;;;;;;;;;12809852;19;20430;-67
2023/03/15 19:33:16;;;;;;;13.80;4.88;;;;;;;;;;12810768;19;20445;-68
2023/03/15 19:38:19;;;;;;;20.85;7.18;;;;;;;;;;12808582;19;20010;-68
2023/03/15 19:43:04;;;;;;;21.10;6.85;;;;;;;;;;12808954;19;20503;-67
2023/03/15 19:52:46;;;;;;;30.90;7.30;;;;;;;;;;12808093;19;20626;-68
2023/03/15 19:58:06;;;;;;;16.95;6.32;;;;;;;;;;12807647;19;20393;-68
2023/03/15 20:03:13;;;;;;;20.92;6.03;;;;;;;;;;12821732;19;20458;-68
2023/03/15 20:13:48;;;;;;;30.42;8.80;;;;;;;;;;12819621;19;20397;-68
2023/03/15 20:18:27;;;;;;;24.08;8.65;;;;;;;;;;12820599;19;20319;-68
2023/03/15 20:29:16;;;;;;;25.52;9.10;;;;;;;;;;12722153;19;2005063;-69
2023/03/15 20:34:10;;;;;;;29.48;9.45;;;;;;;;;;12824005;19;20430;-69
2023/03/15 20:45:06;;;;;;;36.05;12.38;;;;;;;;;;12824597;19;20320;-68
2023/03/15 20:50:07;;;;;;;32.20;10.75;;;;;;;;;;12823000;19;20011;-68
2023/03/15 20:54:47;;;;;;;77.55;20.50;;;;;;;;;;12826969;19;20453;-68
2023/03/15 21:05:41;;;;;;;148.57;39.53;;;;;;;;;;12816998;19;20022;-68
2023/03/15 21:11:04;;;;;;;322.77;79.65;;;;;;;;;;12814013;19;20344;-68
2023/03/15 21:27:10;;;;;;;143.00;38.42;;;;;;;;;;12819267;19;20489;-68
2023/03/15 21:38:20;;;;;;;117.35;27.00;;;;;;;;;;12714753;19;2005199;-68
2023/03/15 21:43:03;;;;;;;93.97;26.63;;;;;;;;;;12814538;19;20371;-69
2023/03/15 21:47:30;;;;;;;40.92;15.48;;;;;;;;;;12816264;19;20437;-68
2023/03/15 21:53:09;;;;;;;46.97;15.70;;;;;;;;;;12816076;19;20302;-67
2023/03/15 21:58:16;;;;;;;45.03;14.13;;;;;;;;;;12711738;19;2005041;-68
2023/03/15 22:02:48;;;;;;;29.48;10.38;;;;;;;;;;12814055;19;20282;-68
2023/03/15 22:08:24;;;;;;;28.83;10.73;;;;;;;;;;12815068;19;21066;-67
2023/03/15 22:13:47;;;;;;;36.42;11.23;;;;;;;;;;12811030;19;20011;-68
2023/03/15 22:18:32;;;;;;;35.97;13.05;;;;;;;;;;12820650;19;20380;-68
2023/03/15 22:23:15;;;;;;;34.15;13.70;;;;;;;;;;12814345;19;20362;-68
2023/03/15 22:27:53;;;;;;;31.20;12.05;;;;;;;;;;12817770;19;20338;-68
2023/03/15 22:32:45;;;;;;;36.50;13.98;;;;;;;;;;12812979;19;20343;-67
2023/03/15 22:42:33;;;;;;;42.15;15.65;;;;;;;;;;12820584;19;20462;-68
2023/03/15 22:52:45;;;;;;;49.17;16.95;;;;;;;;;;12812759;19;20400;-68
2023/03/15 22:57:25;;;;;;;48.17;16.50;;;;;;;;;;12818866;19;20436;-68
2023/03/15 23:08:21;;;;;;;43.50;17.57;;;;;;;;;;12716954;19;2004994;-68
2023/03/15 23:13:07;;;;;;;44.25;17.65;;;;;;;;;;12817550;19;20295;-67
2023/03/15 23:24:12;;;;;;;36.83;15.18;;;;;;;;;;12716943;19;2005387;-68
2023/03/15 23:29:16;;;;;;;37.53;15.68;;;;;;;;;;12813386;19;20395;-69
2023/03/15 23:34:43;;;;;;;32.67;14.75;;;;;;;;;;12820561;19;20364;-68
2023/03/15 23:40:36;;;;;;;36.03;12.40;;;;;;;;;;12828470;19;20427;-68
2023/03/15 23:45:20;;;;;;;34.33;12.40;;;;;;;;;;12827802;19;20430;-68
2023/03/15 23:50:56;;;;;;;30.42;11.50;;;;;;;;;;12830891;19;20019;-68
2023/03/15 23:56:16;;;;;;;39.00;12.73;;;;;;;;;;12724367;19;2005716;-68
